Time;durP1;ratioP1;P1;durP2;ratioP2;P2;SDS_P1;SDS_P2;PMS_P1;PMS_P2;Temp;Humidity;BMP_temperature;BMP_pressure;BME280_temperature;BME280_humidity;BME280_pressure;Samples;Min_cycle;Max_cycle;Signal;HPM_P1;HPM_P2
2022/12/02 00:00:57;;;;;;;48.50;25.40;;;;;;;;;;5017544;28;20083;-62
2022/12/02 00:03:24;;;;;;;42.83;24.83;;;;;;;;;;5031649;28;20053;-64
2022/12/02 00:05:53;;;;;;;45.25;22.77;;;;;;;;;;5030913;28;20497;-65
2022/12/02 00:08:24;;;;;;;44.63;23.33;;;;;;;;;;5032349;28;20025;-64
2022/12/02 00:10:51;;;;;;;43.42;23.80;;;;;;;;;;5032085;28;20036;-65
2022/12/02 00:13:27;;;;;;;43.25;21.98;;;;;;;;;;5031738;28;20112;-60
2022/12/02 00:15:57;;;;;;;48.25;24.65;;;;;;;;;;5030649;28;20047;-60
2022/12/02 00:18:27;;;;;;;47.13;23.80;;;;;;;;;;5032061;28;20032;-64
2022/12/02 00:20:53;;;;;;;45.72;22.52;;;;;;;;;;5018220;28;20029;-64
2022/12/02 00:23:19;;;;;;;51.58;24.65;;;;;;;;;;5023139;28;20037;-62
2022/12/02 00:25:47;;;;;;;48.90;24.25;;;;;;;;;;5031947;28;20017;-64
2022/12/02 00:28:13;;;;;;;49.10;27.03;;;;;;;;;;5030717;28;20025;-63
2022/12/02 00:30:39;;;;;;;51.78;27.45;;;;;;;;;;5020363;28;20030;-62
2022/12/02 00:33:06;;;;;;;54.72;24.98;;;;;;;;;;5026792;28;20124;-64
2022/12/02 00:35:32;;;;;;;48.17;25.65;;;;;;;;;;5012196;28;20036;-63
2022/12/02 00:37:58;;;;;;;48.63;24.35;;;;;;;;;;5012279;28;20075;-63
2022/12/02 00:40:24;;;;;;;47.78;26.27;;;;;;;;;;5027253;28;20065;-62
2022/12/02 00:42:50;;;;;;;52.30;26.17;;;;;;;;;;5013035;28;20045;-63
2022/12/02 00:48:01;;;;;;;52.70;26.85;;;;;;;;;;5023460;28;20028;-64
2022/12/02 00:50:28;;;;;;;47.97;24.77;;;;;;;;;;5034284;28;20109;-62
2022/12/02 00:52:54;;;;;;;49.92;25.85;;;;;;;;;;5035593;28;20040;-62
2022/12/02 00:55:20;;;;;;;56.83;26.83;;;;;;;;;;5035318;28;20029;-63
2022/12/02 00:57:46;;;;;;;49.78;24.75;;;;;;;;;;5033969;28;20474;-64
2022/12/02 01:00:12;;;;;;;47.95;24.67;;;;;;;;;;5035365;28;20405;-64
2022/12/02 01:02:38;;;;;;;47.53;24.80;;;;;;;;;;5034177;28;20053;-63
2022/12/02 01:05:04;;;;;;;56.95;27.75;;;;;;;;;;5033939;28;20137;-65
2022/12/02 01:07:31;;;;;;;47.88;24.70;;;;;;;;;;5035253;28;20014;-63
2022/12/02 01:09:56;;;;;;;46.38;24.88;;;;;;;;;;5033884;28;20025;-64
2022/12/02 01:12:23;;;;;;;49.47;25.05;;;;;;;;;;5035293;28;20036;-62
2022/12/02 01:14:49;;;;;;;48.10;24.55;;;;;;;;;;5033701;28;20386;-64
2022/12/02 01:17:15;;;;;;;49.13;25.27;;;;;;;;;;5035214;28;20033;-64
2022/12/02 01:19:41;;;;;;;46.05;23.52;;;;;;;;;;5033807;28;20025;-63
2022/12/02 01:22:07;;;;;;;51.70;24.30;;;;;;;;;;5033645;28;20041;-62
2022/12/02 01:24:33;;;;;;;50.83;25.70;;;;;;;;;;5034565;28;20036;-62
2022/12/02 01:26:59;;;;;;;53.95;24.48;;;;;;;;;;5034949;28;20029;-64
2022/12/02 01:29:25;;;;;;;53.97;25.40;;;;;;;;;;5031676;28;20473;-64
2022/12/02 01:31:51;;;;;;;55.58;28.20;;;;;;;;;;5015034;28;20121;-64
2022/12/02 01:34:17;;;;;;;60.55;27.70;;;;;;;;;;5014456;28;20033;-64
2022/12/02 01:36:43;;;;;;;51.55;26.35;;;;;;;;;;5029879;28;20025;-64
2022/12/02 01:39:09;;;;;;;55.70;26.60;;;;;;;;;;5014896;28;20477;-60
2022/12/02 01:41:35;;;;;;;59.20;27.75;;;;;;;;;;5032968;28;20064;-63
2022/12/02 01:44:01;;;;;;;54.75;25.08;;;;;;;;;;5032748;28;20029;-60
2022/12/02 01:46:27;;;;;;;54.85;26.73;;;;;;;;;;5034484;28;20116;-63
2022/12/02 01:48:53;;;;;;;54.03;26.58;;;;;;;;;;5034548;28;20022;-61
2022/12/02 01:51:19;;;;;;;47.05;24.27;;;;;;;;;;5034536;28;20026;-63
2022/12/02 01:53:45;;;;;;;53.60;25.77;;;;;;;;;;5033123;28;20033;-60
2022/12/02 01:56:11;;;;;;;51.22;26.90;;;;;;;;;;5033850;28;20087;-64
2022/12/02 01:58:37;;;;;;;57.72;25.88;;;;;;;;;;5034164;28;20026;-64
2022/12/02 02:01:03;;;;;;;46.55;25.48;;;;;;;;;;5018105;28;20038;-62
2022/12/02 02:03:29;;;;;;;52.33;29.35;;;;;;;;;;5013945;28;20521;-63
2022/12/02 02:05:55;;;;;;;54.25;27.02;;;;;;;;;;5014384;28;20487;-63
2022/12/02 02:08:22;;;;;;;52.15;26.90;;;;;;;;;;5014364;28;20426;-62
2022/12/02 02:10:48;;;;;;;56.67;25.55;;;;;;;;;;5029427;28;20026;-63
2022/12/02 02:13:15;;;;;;;53.25;24.60;;;;;;;;;;5029113;28;20054;-63
2022/12/02 02:15:42;;;;;;;50.63;25.40;;;;;;;;;;5014180;28;20105;-63
2022/12/02 02:18:08;;;;;;;48.95;27.38;;;;;;;;;;5030124;28;20040;-64
2022/12/02 02:20:34;;;;;;;51.22;26.00;;;;;;;;;;5013908;28;20038;-64
2022/12/02 02:23:04;;;;;;;52.55;26.02;;;;;;;;;;5013930;28;20022;-62
2022/12/02 02:25:30;;;;;;;52.55;27.42;;;;;;;;;;5014001;28;20022;-64
2022/12/02 02:27:57;;;;;;;56.15;27.30;;;;;;;;;;5013812;28;20552;-63
2022/12/02 02:30:24;;;;;;;53.63;27.55;;;;;;;;;;5013916;28;20034;-63
2022/12/02 02:32:50;;;;;;;55.17;27.95;;;;;;;;;;5013747;28;20034;-62
2022/12/02 02:35:17;;;;;;;52.95;24.55;;;;;;;;;;5028830;28;20033;-62
2022/12/02 02:37:43;;;;;;;53.80;27.73;;;;;;;;;;5029007;28;20087;-64
2022/12/02 02:40:10;;;;;;;54.53;26.38;;;;;;;;;;5013658;28;20037;-63
2022/12/02 02:42:37;;;;;;;57.60;28.80;;;;;;;;;;5013292;28;20053;-62
2022/12/02 02:45:03;;;;;;;57.42;27.48;;;;;;;;;;5013441;28;20022;-64
2022/12/02 02:47:29;;;;;;;49.72;26.80;;;;;;;;;;5013704;28;20025;-64
2022/12/02 02:49:55;;;;;;;51.15;26.10;;;;;;;;;;5013581;28;20514;-64
2022/12/02 02:52:21;;;;;;;57.17;26.90;;;;;;;;;;5013328;28;20089;-64
2022/12/02 02:54:47;;;;;;;58.88;28.38;;;;;;;;;;5013069;28;20460;-63
2022/12/02 02:57:14;;;;;;;59.67;28.52;;;;;;;;;;5031692;28;20029;-64
2022/12/02 02:59:40;;;;;;;55.47;26.75;;;;;;;;;;5033058;28;20028;-59
2022/12/02 03:02:08;;;;;;;60.63;28.50;;;;;;;;;;5032666;28;20026;-64
2022/12/02 03:04:35;;;;;;;55.35;26.90;;;;;;;;;;5031292;28;20022;-62
2022/12/02 03:07:01;;;;;;;62.75;28.85;;;;;;;;;;5031240;28;20032;-62
2022/12/02 03:09:27;;;;;;;56.78;27.80;;;;;;;;;;5033061;28;20087;-63
2022/12/02 03:11:54;;;;;;;60.17;27.50;;;;;;;;;;5031840;28;20018;-62
2022/12/02 03:14:21;;;;;;;59.85;28.17;;;;;;;;;;5019809;28;20026;-63
2022/12/02 03:16:48;;;;;;;61.65;29.45;;;;;;;;;;5013331;28;20026;-63
2022/12/02 03:19:14;;;;;;;58.33;31.20;;;;;;;;;;5011718;28;20030;-62
2022/12/02 03:21:40;;;;;;;68.63;30.77;;;;;;;;;;5011664;28;20047;-63
2022/12/02 03:24:06;;;;;;;64.85;30.13;;;;;;;;;;5022878;28;20038;-62
2022/12/02 03:26:33;;;;;;;60.17;26.95;;;;;;;;;;5031274;28;20021;-64
2022/12/02 03:29:00;;;;;;;68.63;26.60;;;;;;;;;;5032618;28;20112;-63
2022/12/02 03:31:26;;;;;;;57.25;26.05;;;;;;;;;;5032630;28;20104;-63
2022/12/02 03:33:52;;;;;;;57.60;26.05;;;;;;;;;;5032057;28;20029;-63
2022/12/02 03:36:19;;;;;;;54.33;25.52;;;;;;;;;;5032849;28;20018;-65
2022/12/02 03:38:45;;;;;;;62.38;28.55;;;;;;;;;;5032491;28;20033;-63
2022/12/02 03:41:11;;;;;;;59.45;27.48;;;;;;;;;;5031510;28;20048;-64
2022/12/02 03:43:37;;;;;;;66.63;27.38;;;;;;;;;;5032211;28;20056;-64
2022/12/02 03:46:05;;;;;;;58.38;26.90;;;;;;;;;;5032392;28;20505;-63
2022/12/02 03:48:31;;;;;;;64.93;30.33;;;;;;;;;;5032725;28;20037;-63
2022/12/02 03:50:57;;;;;;;70.43;29.20;;;;;;;;;;5028216;28;20502;-63
2022/12/02 03:53:24;;;;;;;65.65;27.45;;;;;;;;;;5012094;28;20037;-63
2022/12/02 03:55:50;;;;;;;68.82;28.42;;;;;;;;;;5027921;28;20040;-62
2022/12/02 03:58:16;;;;;;;64.95;27.60;;;;;;;;;;5012476;28;20052;-63
2022/12/02 04:00:42;;;;;;;50.40;25.10;;;;;;;;;;5012637;28;20489;-63
2022/12/02 04:03:08;;;;;;;62.53;27.38;;;;;;;;;;5027479;28;20056;-63
2022/12/02 04:05:34;;;;;;;62.50;29.92;;;;;;;;;;5012679;28;20510;-63
2022/12/02 04:08:00;;;;;;;61.72;29.48;;;;;;;;;;5027748;28;20018;-64
2022/12/02 04:10:26;;;;;;;63.53;27.38;;;;;;;;;;5012430;28;20660;-62
2022/12/02 04:12:52;;;;;;;55.55;26.30;;;;;;;;;;5027573;28;20025;-64
2022/12/02 04:15:18;;;;;;;64.03;28.58;;;;;;;;;;5012283;28;20128;-64
2022/12/02 04:17:44;;;;;;;60.67;28.15;;;;;;;;;;5011629;28;20030;-60
2022/12/02 04:20:10;;;;;;;64.43;28.42;;;;;;;;;;5025734;28;20435;-61
2022/12/02 04:22:36;;;;;;;54.70;25.52;;;;;;;;;;5030896;28;20486;-62
2022/12/02 04:25:03;;;;;;;53.15;27.38;;;;;;;;;;5030525;28;20024;-62
2022/12/02 04:27:30;;;;;;;61.17;27.50;;;;;;;;;;5032218;28;20013;-59
2022/12/02 04:29:56;;;;;;;51.65;28.08;;;;;;;;;;5032296;28;20415;-62
2022/12/02 04:32:22;;;;;;;55.67;28.17;;;;;;;;;;5031814;28;20117;-64
2022/12/02 04:34:48;;;;;;;52.55;27.90;;;;;;;;;;5030289;28;20033;-63
2022/12/02 04:37:13;;;;;;;59.92;28.67;;;;;;;;;;5032437;28;20033;-61
2022/12/02 04:39:39;;;;;;;54.10;26.75;;;;;;;;;;5032204;28;20025;-64
2022/12/02 04:42:05;;;;;;;64.15;27.85;;;;;;;;;;5030548;28;20036;-64
2022/12/02 04:44:31;;;;;;;54.33;26.98;;;;;;;;;;5031530;28;20102;-64
2022/12/02 04:46:57;;;;;;;52.95;24.95;;;;;;;;;;5026578;28;20240;-63
2022/12/02 04:49:23;;;;;;;58.17;26.25;;;;;;;;;;5027393;28;20041;-65
2022/12/02 04:51:49;;;;;;;58.30;26.55;;;;;;;;;;5027467;28;20391;-62
2022/12/02 04:54:15;;;;;;;52.42;26.02;;;;;;;;;;5011876;28;20026;-62
2022/12/02 04:56:41;;;;;;;49.00;25.45;;;;;;;;;;5027522;28;20026;-62
2022/12/02 04:59:07;;;;;;;53.95;26.20;;;;;;;;;;5027444;28;20026;-63
2022/12/02 05:01:33;;;;;;;52.08;27.35;;;;;;;;;;5012397;28;20091;-64
2022/12/02 05:03:59;;;;;;;53.78;25.15;;;;;;;;;;5013694;28;20026;-63
2022/12/02 05:06:25;;;;;;;54.53;25.20;;;;;;;;;;5028304;28;20029;-63
2022/12/02 05:08:51;;;;;;;61.08;25.92;;;;;;;;;;5012226;28;20022;-63
2022/12/02 05:11:17;;;;;;;49.92;26.23;;;;;;;;;;5012004;28;20041;-62
2022/12/02 05:13:43;;;;;;;49.08;22.85;;;;;;;;;;5011873;28;20030;-61
2022/12/02 05:16:09;;;;;;;59.40;28.77;;;;;;;;;;5012251;28;20034;-61
2022/12/02 05:18:35;;;;;;;48.58;22.92;;;;;;;;;;5027209;28;20164;-64
2022/12/02 05:21:01;;;;;;;45.83;23.27;;;;;;;;;;5026858;28;20034;-61
2022/12/02 05:23:27;;;;;;;53.22;25.35;;;;;;;;;;5026262;28;20033;-63
2022/12/02 05:25:53;;;;;;;52.88;23.58;;;;;;;;;;5009814;28;20026;-63
2022/12/02 05:28:19;;;;;;;58.85;29.52;;;;;;;;;;5011796;28;20067;-63
2022/12/02 05:30:45;;;;;;;53.85;24.02;;;;;;;;;;5014840;28;20086;-64
2022/12/02 05:33:11;;;;;;;51.58;25.27;;;;;;;;;;5044171;22;20060;-66
2022/12/02 05:35:37;;;;;;;49.35;24.42;;;;;;;;;;4992110;28;20053;-69
2022/12/02 05:38:04;;;;;;;50.78;24.35;;;;;;;;;;4992150;28;20092;-66
2022/12/02 05:40:30;;;;;;;49.55;24.83;;;;;;;;;;4987906;28;20019;-68
2022/12/02 05:42:56;;;;;;;51.63;25.33;;;;;;;;;;5016969;28;20038;-67
2022/12/02 05:45:22;;;;;;;55.65;26.02;;;;;;;;;;5012913;28;20025;-68
2022/12/02 05:47:57;;;;;;;50.58;24.60;;;;;;;;;;5012790;28;20022;-65
2022/12/02 05:50:23;;;;;;;51.92;25.67;;;;;;;;;;5007504;28;20101;-65
2022/12/02 05:52:49;;;;;;;57.35;24.13;;;;;;;;;;4992971;28;20408;-65
2022/12/02 05:55:17;;;;;;;49.90;25.85;;;;;;;;;;4992886;28;20475;-66
2022/12/02 05:57:43;;;;;;;46.80;23.77;;;;;;;;;;4993063;28;20038;-66
2022/12/02 06:00:20;;;;;;;48.47;22.98;;;;;;;;;;4994097;28;20027;-67
2022/12/02 06:02:54;;;;;;;53.03;27.23;;;;;;;;;;4972187;28;20031;-65
2022/12/02 06:05:22;;;;;;;47.55;27.70;;;;;;;;;;4973629;28;20105;-66
2022/12/02 06:07:49;;;;;;;54.67;24.98;;;;;;;;;;4972545;28;20026;-66
2022/12/02 06:10:25;;;;;;;44.42;22.90;;;;;;;;;;4972153;28;20389;-67
2022/12/02 06:12:52;;;;;;;47.72;24.15;;;;;;;;;;4972166;28;20208;-67
2022/12/02 06:15:18;;;;;;;47.17;22.77;;;;;;;;;;4973203;28;20077;-65
2022/12/02 06:17:45;;;;;;;48.55;21.95;;;;;;;;;;4972101;28;20368;-63
2022/12/02 06:20:15;;;;;;;46.20;22.75;;;;;;;;;;4992794;28;20035;-65
2022/12/02 06:22:41;;;;;;;52.88;24.52;;;;;;;;;;4992541;28;20030;-65
2022/12/02 06:25:23;;;;;;;50.80;25.17;;;;;;;;;;4989553;28;20030;-63
2022/12/02 06:27:49;;;;;;;47.95;23.85;;;;;;;;;;4992674;28;20038;-63
2022/12/02 06:30:15;;;;;;;48.83;25.13;;;;;;;;;;4991235;28;20109;-63
2022/12/02 06:32:43;;;;;;;55.75;26.27;;;;;;;;;;4992231;28;20031;-64
2022/12/02 06:35:24;;;;;;;46.10;24.97;;;;;;;;;;4992271;28;20423;-65
2022/12/02 06:37:51;;;;;;;54.13;24.15;;;;;;;;;;4991056;28;20288;-67
2022/12/02 06:40:22;;;;;;;47.85;25.75;;;;;;;;;;4991569;28;20053;-66
2022/12/02 06:42:48;;;;;;;50.75;24.88;;;;;;;;;;4992177;28;20089;-64
2022/12/02 06:45:14;;;;;;;52.05;24.30;;;;;;;;;;4992049;28;20105;-64
2022/12/02 06:47:40;;;;;;;51.00;24.63;;;;;;;;;;4992413;28;20026;-65
2022/12/02 06:50:06;;;;;;;51.53;26.13;;;;;;;;;;4991963;28;20028;-66
2022/12/02 06:52:41;;;;;;;50.47;24.08;;;;;;;;;;4983092;28;20038;-66
2022/12/02 06:55:27;;;;;;;52.22;25.92;;;;;;;;;;4971764;28;20033;-66
2022/12/02 06:57:56;;;;;;;55.92;25.45;;;;;;;;;;4972496;28;20027;-65
2022/12/02 07:00:22;;;;;;;50.05;25.02;;;;;;;;;;4986082;28;20035;-65
2022/12/02 07:02:48;;;;;;;47.88;26.35;;;;;;;;;;5009862;28;20043;-65
2022/12/02 07:05:18;;;;;;;55.47;25.55;;;;;;;;;;5010632;28;20088;-63
2022/12/02 07:07:44;;;;;;;52.55;24.85;;;;;;;;;;5011141;28;20470;-67
2022/12/02 07:10:19;;;;;;;51.63;25.08;;;;;;;;;;4999877;28;20030;-64
2022/12/02 07:12:46;;;;;;;50.15;24.92;;;;;;;;;;4989784;28;20403;-68
2022/12/02 07:15:21;;;;;;;47.00;24.88;;;;;;;;;;4991109;28;20030;-67
2022/12/02 07:17:47;;;;;;;52.53;27.52;;;;;;;;;;4991449;28;20147;-64
2022/12/02 07:20:32;;;;;;;50.55;24.60;;;;;;;;;;4991663;28;20038;-64
2022/12/02 07:23:05;;;;;;;47.88;25.58;;;;;;;;;;4991423;28;20030;-66
2022/12/02 07:25:37;;;;;;;49.58;24.83;;;;;;;;;;4991736;28;20109;-66
2022/12/02 07:28:29;;;;;;;50.03;25.95;;;;;;;;;;4992250;28;20030;-66
2022/12/02 07:31:01;;;;;;;47.42;23.58;;;;;;;;;;4971041;28;20057;-66
2022/12/02 07:33:27;;;;;;;50.50;26.30;;;;;;;;;;4991499;28;20034;-66
2022/12/02 07:35:53;;;;;;;53.28;27.73;;;;;;;;;;4991175;28;20112;-66
2022/12/02 07:38:19;;;;;;;46.70;23.40;;;;;;;;;;4991312;28;20121;-66
2022/12/02 07:40:45;;;;;;;47.30;25.02;;;;;;;;;;4991075;28;20116;-65
2022/12/02 07:43:12;;;;;;;49.95;25.95;;;;;;;;;;4995379;28;20573;-66
2022/12/02 07:45:38;;;;;;;47.55;24.30;;;;;;;;;;4999252;28;20027;-65
2022/12/02 07:48:04;;;;;;;56.42;25.00;;;;;;;;;;5002048;28;20097;-66
2022/12/02 07:50:30;;;;;;;45.50;23.13;;;;;;;;;;5010679;28;20026;-66
2022/12/02 07:52:56;;;;;;;45.28;24.25;;;;;;;;;;5010173;28;20053;-66
2022/12/02 07:55:22;;;;;;;46.65;24.60;;;;;;;;;;5008891;28;20207;-65
2022/12/02 07:57:48;;;;;;;44.80;24.15;;;;;;;;;;5010358;28;20141;-66
2022/12/02 08:00:14;;;;;;;44.75;24.23;;;;;;;;;;5002943;28;20127;-65
2022/12/02 08:02:40;;;;;;;45.20;26.17;;;;;;;;;;5000800;28;20057;-66
2022/12/02 08:05:07;;;;;;;42.42;24.73;;;;;;;;;;4997668;28;20032;-66
2022/12/02 08:07:33;;;;;;;42.13;22.73;;;;;;;;;;4993320;28;20482;-61
2022/12/02 08:09:59;;;;;;;41.40;22.55;;;;;;;;;;4990969;28;20034;-61
2022/12/02 08:12:25;;;;;;;44.22;22.58;;;;;;;;;;4990616;28;20089;-63
2022/12/02 08:14:51;;;;;;;47.53;23.95;;;;;;;;;;4990552;28;20140;-61
2022/12/02 08:17:17;;;;;;;41.22;22.23;;;;;;;;;;4991062;28;20038;-63
2022/12/02 08:19:43;;;;;;;42.28;22.27;;;;;;;;;;4990442;28;20052;-62
2022/12/02 08:22:09;;;;;;;38.10;22.40;;;;;;;;;;4989209;28;20018;-64
2022/12/02 08:24:35;;;;;;;41.60;21.25;;;;;;;;;;4988736;28;20479;-63
2022/12/02 08:27:00;;;;;;;41.10;23.17;;;;;;;;;;4990313;28;20085;-63
2022/12/02 08:29:27;;;;;;;40.92;22.15;;;;;;;;;;4990668;28;20107;-59
2022/12/02 08:31:53;;;;;;;39.83;20.55;;;;;;;;;;4993108;28;20072;-61
2022/12/02 08:34:19;;;;;;;41.13;21.05;;;;;;;;;;4999901;28;20034;-63
2022/12/02 08:36:45;;;;;;;43.67;21.55;;;;;;;;;;4992922;28;20026;-64
2022/12/02 08:39:11;;;;;;;40.30;21.23;;;;;;;;;;4990593;28;20033;-64
2022/12/02 08:41:37;;;;;;;40.47;22.20;;;;;;;;;;4990530;28;20041;-59
2022/12/02 08:44:04;;;;;;;42.88;21.52;;;;;;;;;;4988872;28;20034;-61
2022/12/02 08:46:30;;;;;;;39.47;22.23;;;;;;;;;;4990406;28;20027;-63
2022/12/02 08:48:57;;;;;;;39.25;23.33;;;;;;;;;;4990371;28;20027;-67
2022/12/02 08:51:23;;;;;;;42.13;22.20;;;;;;;;;;4990377;28;20026;-67
2022/12/02 08:53:49;;;;;;;42.38;22.02;;;;;;;;;;4989857;28;20149;-66
2022/12/02 08:56:15;;;;;;;42.63;20.83;;;;;;;;;;4990231;28;20022;-67
2022/12/02 08:58:41;;;;;;;41.60;24.50;;;;;;;;;;4990166;28;20048;-66
2022/12/02 09:01:07;;;;;;;43.97;24.20;;;;;;;;;;4989094;28;20033;-67
2022/12/02 09:03:33;;;;;;;42.10;24.42;;;;;;;;;;4990584;28;20034;-67
2022/12/02 09:05:59;;;;;;;47.03;23.33;;;;;;;;;;4993983;28;20382;-66
2022/12/02 09:08:25;;;;;;;40.67;22.15;;;;;;;;;;4993442;28;20483;-69
2022/12/02 09:10:51;;;;;;;43.45;22.98;;;;;;;;;;4993862;28;20030;-66
2022/12/02 09:13:18;;;;;;;45.10;24.23;;;;;;;;;;4993508;28;20109;-68
2022/12/02 09:15:44;;;;;;;47.75;24.88;;;;;;;;;;4993850;28;20038;-68
2022/12/02 09:18:10;;;;;;;47.78;24.35;;;;;;;;;;4992314;28;20032;-68
2022/12/02 09:20:36;;;;;;;41.88;22.08;;;;;;;;;;4977849;28;20082;-68
2022/12/02 09:23:02;;;;;;;50.42;25.17;;;;;;;;;;4973865;28;20035;-66
2022/12/02 09:25:28;;;;;;;44.10;24.85;;;;;;;;;;4975399;28;20035;-68
2022/12/02 09:27:54;;;;;;;46.90;24.92;;;;;;;;;;4995918;28;20494;-68
2022/12/02 09:30:20;;;;;;;51.15;25.90;;;;;;;;;;4976328;28;20039;-69
2022/12/02 09:32:46;;;;;;;52.60;24.92;;;;;;;;;;4972944;28;20035;-69
2022/12/02 09:35:12;;;;;;;46.08;24.13;;;;;;;;;;4973674;28;20084;-67
2022/12/02 09:37:38;;;;;;;47.03;23.65;;;;;;;;;;4974063;28;20053;-68
2022/12/02 09:40:05;;;;;;;50.83;25.85;;;;;;;;;;4974018;28;20505;-67
2022/12/02 09:42:32;;;;;;;50.13;26.67;;;;;;;;;;4972757;28;20038;-68
2022/12/02 09:44:58;;;;;;;49.08;27.00;;;;;;;;;;4973361;28;20380;-68
2022/12/02 09:47:25;;;;;;;53.47;26.52;;;;;;;;;;4973641;28;20127;-69
2022/12/02 09:49:51;;;;;;;51.88;25.75;;;;;;;;;;4973573;28;20022;-67
2022/12/02 09:52:24;;;;;;;56.90;28.80;;;;;;;;;;4973601;28;20075;-67
2022/12/02 09:54:52;;;;;;;47.88;26.48;;;;;;;;;;4973446;28;20027;-68
2022/12/02 09:57:19;;;;;;;51.10;28.02;;;;;;;;;;4973982;28;20081;-66
2022/12/02 09:59:45;;;;;;;46.58;27.20;;;;;;;;;;4973904;28;20077;-68
2022/12/02 10:02:24;;;;;;;56.38;27.58;;;;;;;;;;4973609;28;20026;-69
2022/12/02 10:04:50;;;;;;;53.30;27.55;;;;;;;;;;4972387;28;20030;-69
2022/12/02 10:07:16;;;;;;;61.45;27.33;;;;;;;;;;4973726;28;20102;-67
2022/12/02 10:09:42;;;;;;;49.45;26.25;;;;;;;;;;4977614;28;20030;-67
2022/12/02 10:12:10;;;;;;;58.22;30.30;;;;;;;;;;4991473;28;20081;-68
2022/12/02 10:14:36;;;;;;;59.33;29.42;;;;;;;;;;4990772;28;20030;-68
2022/12/02 10:17:08;;;;;;;53.80;26.77;;;;;;;;;;4991037;28;20030;-68
2022/12/02 10:19:35;;;;;;;56.20;30.02;;;;;;;;;;4973969;28;20395;-68
2022/12/02 10:22:01;;;;;;;50.72;27.10;;;;;;;;;;4973570;28;20070;-70
2022/12/02 10:24:37;;;;;;;57.42;27.75;;;;;;;;;;4972120;28;20027;-69
2022/12/02 10:27:03;;;;;;;52.42;28.80;;;;;;;;;;4992408;28;20029;-67
2022/12/02 10:29:30;;;;;;;60.03;32.70;;;;;;;;;;4992449;28;20018;-68
2022/12/02 10:32:01;;;;;;;61.38;28.85;;;;;;;;;;4991133;28;20025;-68
2022/12/02 10:34:27;;;;;;;55.97;29.17;;;;;;;;;;4992068;28;20045;-68
2022/12/02 10:36:54;;;;;;;58.83;27.63;;;;;;;;;;4992489;28;20026;-68
2022/12/02 10:39:20;;;;;;;64.80;30.75;;;;;;;;;;4992415;28;20066;-68
2022/12/02 10:41:51;;;;;;;59.47;30.85;;;;;;;;;;4992612;28;20034;-69
2022/12/02 10:44:18;;;;;;;57.95;30.08;;;;;;;;;;4991725;28;20049;-68
2022/12/02 10:46:44;;;;;;;56.63;28.98;;;;;;;;;;4978974;28;20037;-65
2022/12/02 10:49:24;;;;;;;61.40;31.50;;;;;;;;;;4972957;28;20439;-69
2022/12/02 10:51:50;;;;;;;60.35;28.08;;;;;;;;;;4972876;28;20106;-67
2022/12/02 10:54:28;;;;;;;59.42;31.98;;;;;;;;;;4971845;28;20023;-67
2022/12/02 10:56:55;;;;;;;56.50;25.67;;;;;;;;;;4973422;28;20074;-67
2022/12/02 10:59:21;;;;;;;63.08;32.80;;;;;;;;;;4972835;28;20118;-68
2022/12/02 11:01:47;;;;;;;57.67;29.60;;;;;;;;;;4972624;28;20027;-68
2022/12/02 11:04:14;;;;;;;53.40;27.55;;;;;;;;;;4972573;28;20027;-68
2022/12/02 11:06:40;;;;;;;65.07;29.92;;;;;;;;;;4973210;28;20030;-68
2022/12/02 11:09:07;;;;;;;65.43;30.25;;;;;;;;;;4972867;28;20031;-68
2022/12/02 11:11:33;;;;;;;56.20;28.70;;;;;;;;;;4972880;28;20034;-69
2022/12/02 11:14:01;;;;;;;54.30;28.00;;;;;;;;;;4980415;28;20089;-66
2022/12/02 11:16:30;;;;;;;66.17;34.40;;;;;;;;;;4992706;28;20062;-66
2022/12/02 11:18:57;;;;;;;64.70;33.88;;;;;;;;;;4992107;28;20442;-68
2022/12/02 11:21:29;;;;;;;61.13;29.60;;;;;;;;;;4981428;28;20109;-68
2022/12/02 11:24:14;;;;;;;59.55;30.02;;;;;;;;;;4970469;28;20274;-69
2022/12/02 11:26:59;;;;;;;53.45;28.95;;;;;;;;;;4971857;28;20060;-68
2022/12/02 11:29:25;;;;;;;60.42;29.88;;;;;;;;;;4638593;28;9999955;-67
2022/12/02 11:32:12;;;;;;;65.47;31.05;;;;;;;;;;4988385;28;20030;-67
2022/12/02 11:34:50;;;;;;;59.95;32.35;;;;;;;;;;5005783;22;20046;-64
2022/12/02 11:37:25;;;;;;;63.50;30.85;;;;;;;;;;4983645;28;20030;-66
2022/12/02 11:39:56;;;;;;;61.83;29.58;;;;;;;;;;4986674;28;20026;-65
2022/12/02 11:42:25;;;;;;;65.25;32.00;;;;;;;;;;4989870;28;20053;-63
2022/12/02 11:44:51;;;;;;;64.18;32.17;;;;;;;;;;4989569;28;20442;-65
2022/12/02 11:47:25;;;;;;;68.65;35.08;;;;;;;;;;4989640;28;20014;-65
2022/12/02 11:49:52;;;;;;;61.80;30.70;;;;;;;;;;4978532;28;20061;-65
2022/12/02 11:52:22;;;;;;;62.75;31.38;;;;;;;;;;4989561;28;20069;-65
2022/12/02 11:55:10;;;;;;;60.53;31.10;;;;;;;;;;4985615;28;20018;-65
2022/12/02 11:57:41;;;;;;;62.10;32.08;;;;;;;;;;4989125;28;20038;-66
2022/12/02 12:00:24;;;;;;;70.22;32.85;;;;;;;;;;4988054;28;20520;-63
2022/12/02 12:03:06;;;;;;;64.38;31.92;;;;;;;;;;4990224;28;20030;-65
2022/12/02 12:05:32;;;;;;;63.67;32.10;;;;;;;;;;4989496;28;20394;-64
2022/12/02 12:07:58;;;;;;;64.85;33.05;;;;;;;;;;4991540;28;20394;-65
2022/12/02 12:10:26;;;;;;;57.45;30.48;;;;;;;;;;4987039;28;20038;-65
2022/12/02 12:13:11;;;;;;;59.88;30.70;;;;;;;;;;4971332;28;20110;-64
2022/12/02 12:16:01;;;;;;;56.80;29.88;;;;;;;;;;4970032;28;20030;-64
2022/12/02 12:18:36;;;;;;;61.28;32.40;;;;;;;;;;4972623;28;20042;-64
2022/12/02 12:21:02;;;;;;;58.72;30.70;;;;;;;;;;4989027;28;20510;-65
2022/12/02 12:23:29;;;;;;;58.63;30.75;;;;;;;;;;4992417;28;20033;-65
2022/12/02 12:25:55;;;;;;;60.08;30.60;;;;;;;;;;4992807;28;20027;-65
2022/12/02 12:28:25;;;;;;;59.47;30.80;;;;;;;;;;4993130;28;20509;-67
2022/12/02 12:30:52;;;;;;;59.83;32.40;;;;;;;;;;4995017;28;20026;-67
2022/12/02 12:33:18;;;;;;;54.92;29.83;;;;;;;;;;4991358;28;20032;-67
2022/12/02 12:35:44;;;;;;;56.83;29.75;;;;;;;;;;4994060;28;20418;-66
2022/12/02 12:38:10;;;;;;;54.70;29.88;;;;;;;;;;4994209;28;20082;-66
2022/12/02 12:40:36;;;;;;;59.65;30.13;;;;;;;;;;4996518;28;20070;-67
2022/12/02 12:43:02;;;;;;;54.17;30.92;;;;;;;;;;4998002;28;20062;-67
2022/12/02 12:45:28;;;;;;;54.55;29.58;;;;;;;;;;4997271;28;20022;-67
2022/12/02 12:47:54;;;;;;;54.88;28.02;;;;;;;;;;4997373;28;20035;-67
2022/12/02 12:50:20;;;;;;;56.17;28.42;;;;;;;;;;4981568;28;20062;-67
2022/12/02 12:52:45;;;;;;;54.22;28.08;;;;;;;;;;4986892;28;20045;-65
2022/12/02 12:55:12;;;;;;;55.53;29.50;;;;;;;;;;4997130;28;20022;-66
2022/12/02 12:57:37;;;;;;;52.25;27.35;;;;;;;;;;4996996;28;20034;-67
2022/12/02 13:00:04;;;;;;;57.03;27.88;;;;;;;;;;4996322;28;20030;-66
2022/12/02 13:02:30;;;;;;;50.45;26.40;;;;;;;;;;4999230;28;20034;-66
2022/12/02 13:04:56;;;;;;;56.03;28.17;;;;;;;;;;4996320;28;20049;-67
2022/12/02 13:07:22;;;;;;;46.25;25.98;;;;;;;;;;4987427;28;20089;-66
2022/12/02 13:09:48;;;;;;;56.67;28.45;;;;;;;;;;4997375;28;20024;-67
2022/12/02 13:12:14;;;;;;;48.88;26.17;;;;;;;;;;4996315;28;20181;-67
2022/12/02 13:14:40;;;;;;;54.38;29.52;;;;;;;;;;4996248;28;20030;-66
2022/12/02 13:17:06;;;;;;;57.33;29.98;;;;;;;;;;4996533;28;20030;-67
2022/12/02 13:19:33;;;;;;;55.58;30.30;;;;;;;;;;4994520;28;20034;-65
2022/12/02 13:21:59;;;;;;;53.78;27.52;;;;;;;;;;4977783;28;20479;-68
2022/12/02 13:24:25;;;;;;;51.42;27.85;;;;;;;;;;4975603;28;20173;-67
2022/12/02 13:26:51;;;;;;;51.00;28.65;;;;;;;;;;4976978;28;20407;-66
2022/12/02 13:29:17;;;;;;;51.40;27.40;;;;;;;;;;4996795;28;20101;-66
2022/12/02 13:31:43;;;;;;;51.65;25.13;;;;;;;;;;4997434;28;20023;-65
2022/12/02 13:34:09;;;;;;;48.10;29.38;;;;;;;;;;4996215;28;20525;-67
2022/12/02 13:36:35;;;;;;;52.33;29.58;;;;;;;;;;5001815;28;20036;-68
2022/12/02 13:39:02;;;;;;;48.40;26.60;;;;;;;;;;5016180;28;20052;-68
2022/12/02 13:41:28;;;;;;;42.75;24.38;;;;;;;;;;5014521;28;20041;-67
2022/12/02 13:43:54;;;;;;;45.78;25.70;;;;;;;;;;5015416;28;20030;-67
2022/12/02 13:46:20;;;;;;;50.60;29.08;;;;;;;;;;5013837;28;20044;-66
2022/12/02 13:48:46;;;;;;;44.67;23.35;;;;;;;;;;5002383;28;20031;-67
2022/12/02 13:51:12;;;;;;;47.45;25.15;;;;;;;;;;4995454;28;20044;-66
2022/12/02 13:53:38;;;;;;;48.03;26.75;;;;;;;;;;4994965;28;20537;-65
2022/12/02 13:56:04;;;;;;;45.15;25.00;;;;;;;;;;4995423;28;20098;-65
2022/12/02 13:58:30;;;;;;;47.28;27.02;;;;;;;;;;4993830;28;20026;-65
2022/12/02 14:00:56;;;;;;;46.03;25.88;;;;;;;;;;4993473;28;20037;-65
2022/12/02 14:03:22;;;;;;;49.10;26.83;;;;;;;;;;4978480;28;20035;-66
2022/12/02 14:05:48;;;;;;;46.90;26.98;;;;;;;;;;4972913;28;20025;-66
2022/12/02 14:08:14;;;;;;;59.28;27.27;;;;;;;;;;4974835;28;20154;-66
2022/12/02 14:10:40;;;;;;;45.13;26.52;;;;;;;;;;4973250;28;20042;-65
2022/12/02 14:13:06;;;;;;;40.45;22.80;;;;;;;;;;4973179;28;20023;-66
2022/12/02 14:15:32;;;;;;;44.50;23.88;;;;;;;;;;4973870;28;20128;-66
2022/12/02 14:17:58;;;;;;;50.25;25.23;;;;;;;;;;4975559;28;20031;-67
2022/12/02 14:20:24;;;;;;;47.08;27.25;;;;;;;;;;4974441;28;20042;-68